Terminal Aerodrome Forecast
Issued by NWS Mt. Holly, NJ

Home | Current Version | Previous Version | Text Only | Print | Product List | Glossary On
Versions: 1 2 3 4 5 6 7 8 9 10 11 12 13 14 15 16 17 18
000
FTUS41 KPHI 241900 AAA
TAFRDG
TAF AMD
KRDG 241905Z 2419/2518 19018G28KT P6SM SCT030 BKN035
     FM242200 21012G20KT P6SM SCT030 BKN040
     FM250000 21009KT P6SM BKN060
     FM250600 28007KT P6SM SCT025 BKN050
     FM251500 28010G20KT P6SM BKN200=

USA.gov is the U.S. government's official web portal to all federal, state and local government web resources and services.